sensor_id;sensor_type;location;lat;lon;timestamp;temperature;humidity
4509;DHT22;2267;48.816;9.230;2024-02-21T00:00:33;10.40;99.90
4509;DHT22;2267;48.816;9.230;2024-02-21T00:03:00;10.40;99.90
4509;DHT22;2267;48.816;9.230;2024-02-21T00:05:29;10.40;99.90
4509;DHT22;2267;48.816;9.230;2024-02-21T00:07:58;10.40;99.90
4509;DHT22;2267;48.816;9.230;2024-02-21T00:10:25;10.40;99.90
4509;DHT22;2267;48.816;9.230;2024-02-21T00:12:53;10.40;99.90
4509;DHT22;2267;48.816;9.230;2024-02-21T00:15:20;10.40;99.90
4509;DHT22;2267;48.816;9.230;2024-02-21T00:17:46;10.40;99.90
4509;DHT22;2267;48.816;9.230;2024-02-21T00:20:15;10.40;99.90
4509;DHT22;2267;48.816;9.230;2024-02-21T00:22:42;10.40;99.90
4509;DHT22;2267;48.816;9.230;2024-02-21T00:25:09;10.30;99.90
4509;DHT22;2267;48.816;9.230;2024-02-21T00:27:36;10.30;99.90
4509;DHT22;2267;48.816;9.230;2024-02-21T00:30:03;10.30;99.90
4509;DHT22;2267;48.816;9.230;2024-02-21T00:32:30;10.30;99.90
4509;DHT22;2267;48.816;9.230;2024-02-21T00:34:58;10.30;99.90
4509;DHT22;2267;48.816;9.230;2024-02-21T00:37:25;10.20;99.90
4509;DHT22;2267;48.816;9.230;2024-02-21T00:39:54;10.30;99.90
4509;DHT22;2267;48.816;9.230;2024-02-21T00:42:20;10.30;99.90
4509;DHT22;2267;48.816;9.230;2024-02-21T00:44:47;10.20;99.90
4509;DHT22;2267;48.816;9.230;2024-02-21T00:47:14;10.30;99.90
4509;DHT22;2267;48.816;9.230;2024-02-21T00:49:41;10.20;99.90
4509;DHT22;2267;48.816;9.230;2024-02-21T00:52:08;10.20;99.90
4509;DHT22;2267;48.816;9.230;2024-02-21T00:54:35;10.20;99.90
4509;DHT22;2267;48.816;9.230;2024-02-21T00:57:13;10.20;99.90
4509;DHT22;2267;48.816;9.230;2024-02-21T00:59:40;10.10;99.90
4509;DHT22;2267;48.816;9.230;2024-02-21T01:02:08;10.10;99.90
4509;DHT22;2267;48.816;9.230;2024-02-21T01:04:35;10.10;99.90
4509;DHT22;2267;48.816;9.230;2024-02-21T01:07:03;10.00;99.90
4509;DHT22;2267;48.816;9.230;2024-02-21T01:09:30;10.00;99.90
4509;DHT22;2267;48.816;9.230;2024-02-21T01:11:57;10.00;99.90
4509;DHT22;2267;48.816;9.230;2024-02-21T01:14:23;9.90;99.90
4509;DHT22;2267;48.816;9.230;2024-02-21T01:16:50;9.90;99.90
4509;DHT22;2267;48.816;9.230;2024-02-21T01:19:17;9.90;99.90
4509;DHT22;2267;48.816;9.230;2024-02-21T01:21:44;9.90;99.90
4509;DHT22;2267;48.816;9.230;2024-02-21T01:24:11;9.90;99.90
4509;DHT22;2267;48.816;9.230;2024-02-21T01:26:38;9.90;99.90
4509;DHT22;2267;48.816;9.230;2024-02-21T01:29:04;9.90;99.90
4509;DHT22;2267;48.816;9.230;2024-02-21T01:31:31;9.90;99.90
4509;DHT22;2267;48.816;9.230;2024-02-21T01:33:58;9.90;99.90
4509;DHT22;2267;48.816;9.230;2024-02-21T01:36:25;9.90;99.90
4509;DHT22;2267;48.816;9.230;2024-02-21T01:38:52;9.90;99.90
4509;DHT22;2267;48.816;9.230;2024-02-21T01:41:18;9.90;99.90
4509;DHT22;2267;48.816;9.230;2024-02-21T01:43:45;9.90;99.90
4509;DHT22;2267;48.816;9.230;2024-02-21T01:46:12;9.90;99.90
4509;DHT22;2267;48.816;9.230;2024-02-21T01:48:39;9.90;99.90
4509;DHT22;2267;48.816;9.230;2024-02-21T01:51:06;9.80;99.90
4509;DHT22;2267;48.816;9.230;2024-02-21T01:53:36;9.80;99.90
4509;DHT22;2267;48.816;9.230;2024-02-21T01:56:05;9.80;99.90
4509;DHT22;2267;48.816;9.230;2024-02-21T01:58:35;9.80;99.90
4509;DHT22;2267;48.816;9.230;2024-02-21T02:01:03;9.80;99.90
4509;DHT22;2267;48.816;9.230;2024-02-21T02:03:31;9.80;99.90
4509;DHT22;2267;48.816;9.230;2024-02-21T02:05:58;9.90;99.90
4509;DHT22;2267;48.816;9.230;2024-02-21T02:08:25;9.80;99.90
4509;DHT22;2267;48.816;9.230;2024-02-21T02:10:52;9.80;99.90
4509;DHT22;2267;48.816;9.230;2024-02-21T02:13:19;9.80;99.90
4509;DHT22;2267;48.816;9.230;2024-02-21T02:15:47;9.80;99.90
4509;DHT22;2267;48.816;9.230;2024-02-21T02:18:15;9.80;99.90
4509;DHT22;2267;48.816;9.230;2024-02-21T02:20:44;9.80;99.90
4509;DHT22;2267;48.816;9.230;2024-02-21T02:25:51;9.80;99.90
4509;DHT22;2267;48.816;9.230;2024-02-21T02:28:19;9.80;99.90
4509;DHT22;2267;48.816;9.230;2024-02-21T02:30:47;9.80;99.90
4509;DHT22;2267;48.816;9.230;2024-02-21T02:33:16;9.80;99.90
4509;DHT22;2267;48.816;9.230;2024-02-21T02:35:46;9.80;99.90
4509;DHT22;2267;48.816;9.230;2024-02-21T02:38:13;9.80;99.90
4509;DHT22;2267;48.816;9.230;2024-02-21T02:40:41;9.80;99.90
4509;DHT22;2267;48.816;9.230;2024-02-21T02:43:08;9.80;99.90
4509;DHT22;2267;48.816;9.230;2024-02-21T02:45:35;9.80;99.90
4509;DHT22;2267;48.816;9.230;2024-02-21T02:48:02;9.80;99.90
4509;DHT22;2267;48.816;9.230;2024-02-21T02:50:30;9.80;99.90
4509;DHT22;2267;48.816;9.230;2024-02-21T02:52:57;9.80;99.90
4509;DHT22;2267;48.816;9.230;2024-02-21T02:55:24;9.80;99.90
4509;DHT22;2267;48.816;9.230;2024-02-21T02:57:53;9.80;99.90
4509;DHT22;2267;48.816;9.230;2024-02-21T03:00:20;9.70;99.90
4509;DHT22;2267;48.816;9.230;2024-02-21T03:02:49;9.70;99.90
4509;DHT22;2267;48.816;9.230;2024-02-21T03:05:20;9.70;99.90
4509;DHT22;2267;48.816;9.230;2024-02-21T03:07:48;9.60;99.90
4509;DHT22;2267;48.816;9.230;2024-02-21T03:10:16;9.60;99.90
4509;DHT22;2267;48.816;9.230;2024-02-21T03:12:44;9.60;99.90
4509;DHT22;2267;48.816;9.230;2024-02-21T03:15:12;9.50;99.90
4509;DHT22;2267;48.816;9.230;2024-02-21T03:17:40;9.50;99.90
4509;DHT22;2267;48.816;9.230;2024-02-21T03:20:07;9.60;99.90
4509;DHT22;2267;48.816;9.230;2024-02-21T03:22:40;9.60;99.90
4509;DHT22;2267;48.816;9.230;2024-02-21T03:25:08;9.60;99.90
4509;DHT22;2267;48.816;9.230;2024-02-21T03:27:35;9.60;99.90
4509;DHT22;2267;48.816;9.230;2024-02-21T03:30:03;9.60;99.90
4509;DHT22;2267;48.816;9.230;2024-02-21T03:32:31;9.60;99.90
4509;DHT22;2267;48.816;9.230;2024-02-21T03:34:57;9.60;99.90
4509;DHT22;2267;48.816;9.230;2024-02-21T03:37:24;9.60;99.90
4509;DHT22;2267;48.816;9.230;2024-02-21T03:39:51;9.60;99.90
4509;DHT22;2267;48.816;9.230;2024-02-21T03:42:18;9.70;99.90
4509;DHT22;2267;48.816;9.230;2024-02-21T03:44:45;9.70;99.90
4509;DHT22;2267;48.816;9.230;2024-02-21T03:47:12;9.70;99.90
4509;DHT22;2267;48.816;9.230;2024-02-21T03:49:39;9.70;99.90
4509;DHT22;2267;48.816;9.230;2024-02-21T03:52:06;9.70;99.90
4509;DHT22;2267;48.816;9.230;2024-02-21T03:54:33;9.70;99.90
4509;DHT22;2267;48.816;9.230;2024-02-21T03:57:00;9.70;99.90
4509;DHT22;2267;48.816;9.230;2024-02-21T03:59:27;9.70;99.90
4509;DHT22;2267;48.816;9.230;2024-02-21T04:01:53;9.70;99.90
4509;DHT22;2267;48.816;9.230;2024-02-21T04:04:21;9.70;99.90
4509;DHT22;2267;48.816;9.230;2024-02-21T04:06:49;9.70;99.90
4509;DHT22;2267;48.816;9.230;2024-02-21T04:09:16;9.70;99.90
4509;DHT22;2267;48.816;9.230;2024-02-21T04:11:43;9.70;99.90
4509;DHT22;2267;48.816;9.230;2024-02-21T04:14:10;9.70;99.90
4509;DHT22;2267;48.816;9.230;2024-02-21T04:16:38;9.70;99.90
4509;DHT22;2267;48.816;9.230;2024-02-21T04:19:06;9.70;99.90
4509;DHT22;2267;48.816;9.230;2024-02-21T04:21:33;9.70;99.90
4509;DHT22;2267;48.816;9.230;2024-02-21T04:24:00;9.60;99.90
4509;DHT22;2267;48.816;9.230;2024-02-21T04:26:28;9.60;99.90
4509;DHT22;2267;48.816;9.230;2024-02-21T04:28:55;9.60;99.90
4509;DHT22;2267;48.816;9.230;2024-02-21T04:31:22;9.60;99.90
4509;DHT22;2267;48.816;9.230;2024-02-21T04:33:49;9.60;99.90
4509;DHT22;2267;48.816;9.230;2024-02-21T04:36:16;9.60;99.90
4509;DHT22;2267;48.816;9.230;2024-02-21T04:38:43;9.50;99.90
4509;DHT22;2267;48.816;9.230;2024-02-21T04:41:12;9.50;99.90
4509;DHT22;2267;48.816;9.230;2024-02-21T04:43:39;9.60;99.90
4509;DHT22;2267;48.816;9.230;2024-02-21T04:46:07;9.60;99.90
4509;DHT22;2267;48.816;9.230;2024-02-21T04:48:34;9.60;99.90
4509;DHT22;2267;48.816;9.230;2024-02-21T04:51:01;9.60;99.90
4509;DHT22;2267;48.816;9.230;2024-02-21T04:53:28;9.60;99.90
4509;DHT22;2267;48.816;9.230;2024-02-21T04:55:54;9.60;99.90
4509;DHT22;2267;48.816;9.230;2024-02-21T04:58:21;9.50;99.90
4509;DHT22;2267;48.816;9.230;2024-02-21T05:00:48;9.50;99.90
4509;DHT22;2267;48.816;9.230;2024-02-21T05:03:16;9.50;99.90
4509;DHT22;2267;48.816;9.230;2024-02-21T05:05:42;9.50;99.90
4509;DHT22;2267;48.816;9.230;2024-02-21T05:08:10;9.50;99.90
4509;DHT22;2267;48.816;9.230;2024-02-21T05:10:37;9.50;99.90
4509;DHT22;2267;48.816;9.230;2024-02-21T05:13:04;9.50;99.90
4509;DHT22;2267;48.816;9.230;2024-02-21T05:15:31;9.50;99.90
4509;DHT22;2267;48.816;9.230;2024-02-21T05:17:58;9.50;99.90
4509;DHT22;2267;48.816;9.230;2024-02-21T05:20:25;9.50;99.90
4509;DHT22;2267;48.816;9.230;2024-02-21T05:22:52;9.50;99.90
4509;DHT22;2267;48.816;9.230;2024-02-21T05:25:19;9.50;99.90
4509;DHT22;2267;48.816;9.230;2024-02-21T05:27:46;9.50;99.90
4509;DHT22;2267;48.816;9.230;2024-02-21T05:30:13;9.50;99.90
4509;DHT22;2267;48.816;9.230;2024-02-21T05:32:39;9.40;99.90
4509;DHT22;2267;48.816;9.230;2024-02-21T05:35:08;9.40;99.90
4509;DHT22;2267;48.816;9.230;2024-02-21T05:37:35;9.40;99.90
4509;DHT22;2267;48.816;9.230;2024-02-21T05:40:02;9.30;99.90
4509;DHT22;2267;48.816;9.230;2024-02-21T05:42:28;9.30;99.90
4509;DHT22;2267;48.816;9.230;2024-02-21T05:44:55;9.30;99.90
4509;DHT22;2267;48.816;9.230;2024-02-21T05:47:22;9.30;99.90
4509;DHT22;2267;48.816;9.230;2024-02-21T05:49:49;9.30;99.90
4509;DHT22;2267;48.816;9.230;2024-02-21T05:52:20;9.20;99.90
4509;DHT22;2267;48.816;9.230;2024-02-21T05:54:47;9.20;99.90
4509;DHT22;2267;48.816;9.230;2024-02-21T05:57:19;9.20;99.90
4509;DHT22;2267;48.816;9.230;2024-02-21T05:59:46;9.20;99.90
4509;DHT22;2267;48.816;9.230;2024-02-21T06:02:13;9.10;99.90
4509;DHT22;2267;48.816;9.230;2024-02-21T06:04:40;9.10;99.90
4509;DHT22;2267;48.816;9.230;2024-02-21T06:07:09;9.10;99.90
4509;DHT22;2267;48.816;9.230;2024-02-21T06:09:36;9.10;99.90
4509;DHT22;2267;48.816;9.230;2024-02-21T06:12:03;9.10;99.90
4509;DHT22;2267;48.816;9.230;2024-02-21T06:14:30;9.10;99.90
4509;DHT22;2267;48.816;9.230;2024-02-21T06:16:57;9.10;99.90
4509;DHT22;2267;48.816;9.230;2024-02-21T06:19:24;9.10;99.90
4509;DHT22;2267;48.816;9.230;2024-02-21T06:21:51;9.10;99.90
4509;DHT22;2267;48.816;9.230;2024-02-21T06:24:18;9.10;99.90
4509;DHT22;2267;48.816;9.230;2024-02-21T06:26:44;9.10;99.90
4509;DHT22;2267;48.816;9.230;2024-02-21T06:29:11;9.00;99.90
4509;DHT22;2267;48.816;9.230;2024-02-21T06:31:40;9.00;99.90
4509;DHT22;2267;48.816;9.230;2024-02-21T06:34:07;9.00;99.90
4509;DHT22;2267;48.816;9.230;2024-02-21T06:36:34;9.00;99.90
4509;DHT22;2267;48.816;9.230;2024-02-21T06:39:01;9.00;99.90
4509;DHT22;2267;48.816;9.230;2024-02-21T06:41:28;9.00;99.90
4509;DHT22;2267;48.816;9.230;2024-02-21T06:43:57;9.00;99.90
4509;DHT22;2267;48.816;9.230;2024-02-21T06:46:28;9.00;99.90
4509;DHT22;2267;48.816;9.230;2024-02-21T06:48:56;9.00;99.90
4509;DHT22;2267;48.816;9.230;2024-02-21T06:51:24;9.00;99.90
4509;DHT22;2267;48.816;9.230;2024-02-21T06:53:54;9.00;99.90
4509;DHT22;2267;48.816;9.230;2024-02-21T06:56:24;9.00;99.90
4509;DHT22;2267;48.816;9.230;2024-02-21T06:58:55;9.00;99.90
4509;DHT22;2267;48.816;9.230;2024-02-21T07:01:23;9.00;99.90
4509;DHT22;2267;48.816;9.230;2024-02-21T07:03:50;9.00;99.90
4509;DHT22;2267;48.816;9.230;2024-02-21T07:06:17;9.00;99.90
4509;DHT22;2267;48.816;9.230;2024-02-21T07:08:44;9.00;99.90
4509;DHT22;2267;48.816;9.230;2024-02-21T07:11:11;9.10;99.90
4509;DHT22;2267;48.816;9.230;2024-02-21T07:13:38;9.10;99.90
4509;DHT22;2267;48.816;9.230;2024-02-21T07:16:06;9.10;99.90
4509;DHT22;2267;48.816;9.230;2024-02-21T07:18:33;9.10;99.90
4509;DHT22;2267;48.816;9.230;2024-02-21T07:21:00;9.20;99.90
4509;DHT22;2267;48.816;9.230;2024-02-21T07:23:27;9.20;99.90
4509;DHT22;2267;48.816;9.230;2024-02-21T07:25:53;9.20;99.90
4509;DHT22;2267;48.816;9.230;2024-02-21T07:28:20;9.20;99.90
4509;DHT22;2267;48.816;9.230;2024-02-21T07:30:47;9.20;99.90
4509;DHT22;2267;48.816;9.230;2024-02-21T07:33:15;9.20;99.90
4509;DHT22;2267;48.816;9.230;2024-02-21T07:35:41;9.30;99.90
4509;DHT22;2267;48.816;9.230;2024-02-21T07:38:11;9.30;99.90
4509;DHT22;2267;48.816;9.230;2024-02-21T07:40:39;9.30;99.90
4509;DHT22;2267;48.816;9.230;2024-02-21T07:43:06;9.40;99.90
4509;DHT22;2267;48.816;9.230;2024-02-21T07:45:33;9.40;99.90
4509;DHT22;2267;48.816;9.230;2024-02-21T07:48:00;9.50;99.90
4509;DHT22;2267;48.816;9.230;2024-02-21T07:50:27;9.50;99.90
4509;DHT22;2267;48.816;9.230;2024-02-21T07:52:54;9.50;99.90
4509;DHT22;2267;48.816;9.230;2024-02-21T07:55:21;9.60;99.90
4509;DHT22;2267;48.816;9.230;2024-02-21T07:57:48;9.60;99.90
4509;DHT22;2267;48.816;9.230;2024-02-21T08:00:16;9.70;99.90
4509;DHT22;2267;48.816;9.230;2024-02-21T08:02:48;9.70;99.90
4509;DHT22;2267;48.816;9.230;2024-02-21T08:05:15;9.70;99.90
4509;DHT22;2267;48.816;9.230;2024-02-21T08:07:42;9.70;99.90
4509;DHT22;2267;48.816;9.230;2024-02-21T08:10:09;9.80;99.90
4509;DHT22;2267;48.816;9.230;2024-02-21T08:12:36;9.80;99.90
4509;DHT22;2267;48.816;9.230;2024-02-21T08:15:03;9.80;99.90
4509;DHT22;2267;48.816;9.230;2024-02-21T08:17:30;9.80;99.90
4509;DHT22;2267;48.816;9.230;2024-02-21T08:19:58;9.90;99.90
4509;DHT22;2267;48.816;9.230;2024-02-21T08:22:25;9.90;99.90
4509;DHT22;2267;48.816;9.230;2024-02-21T08:24:53;10.00;99.90
4509;DHT22;2267;48.816;9.230;2024-02-21T08:27:20;10.00;99.90
4509;DHT22;2267;48.816;9.230;2024-02-21T08:29:47;10.00;99.90
4509;DHT22;2267;48.816;9.230;2024-02-21T08:32:14;10.00;99.90
4509;DHT22;2267;48.816;9.230;2024-02-21T08:34:40;10.10;99.90
4509;DHT22;2267;48.816;9.230;2024-02-21T08:37:07;10.10;99.90
4509;DHT22;2267;48.816;9.230;2024-02-21T08:39:35;10.10;99.90
4509;DHT22;2267;48.816;9.230;2024-02-21T08:42:01;10.20;99.90
4509;DHT22;2267;48.816;9.230;2024-02-21T08:44:29;10.20;99.90
4509;DHT22;2267;48.816;9.230;2024-02-21T08:46:55;10.30;99.90
4509;DHT22;2267;48.816;9.230;2024-02-21T08:49:23;10.30;99.90
4509;DHT22;2267;48.816;9.230;2024-02-21T08:52:00;10.30;99.90
4509;DHT22;2267;48.816;9.230;2024-02-21T08:54:27;10.30;99.90
4509;DHT22;2267;48.816;9.230;2024-02-21T08:56:54;10.30;99.90
4509;DHT22;2267;48.816;9.230;2024-02-21T08:59:21;10.30;99.90
4509;DHT22;2267;48.816;9.230;2024-02-21T09:01:48;10.30;99.90
4509;DHT22;2267;48.816;9.230;2024-02-21T09:04:15;10.40;99.90
4509;DHT22;2267;48.816;9.230;2024-02-21T09:06:42;10.40;99.90
4509;DHT22;2267;48.816;9.230;2024-02-21T09:09:09;10.40;99.90
4509;DHT22;2267;48.816;9.230;2024-02-21T09:11:36;10.40;99.90
4509;DHT22;2267;48.816;9.230;2024-02-21T09:14:04;10.40;99.90
4509;DHT22;2267;48.816;9.230;2024-02-21T09:16:34;10.40;99.90
4509;DHT22;2267;48.816;9.230;2024-02-21T09:19:01;10.50;99.90
4509;DHT22;2267;48.816;9.230;2024-02-21T09:21:28;10.50;99.90
4509;DHT22;2267;48.816;9.230;2024-02-21T09:23:55;10.50;99.90
4509;DHT22;2267;48.816;9.230;2024-02-21T09:26:25;10.50;99.90
4509;DHT22;2267;48.816;9.230;2024-02-21T09:28:52;10.50;99.90
4509;DHT22;2267;48.816;9.230;2024-02-21T09:31:20;10.50;99.90
4509;DHT22;2267;48.816;9.230;2024-02-21T09:33:47;10.60;99.90
4509;DHT22;2267;48.816;9.230;2024-02-21T09:36:14;10.60;99.90
4509;DHT22;2267;48.816;9.230;2024-02-21T09:38:41;10.60;99.90
4509;DHT22;2267;48.816;9.230;2024-02-21T09:41:16;10.60;99.90
4509;DHT22;2267;48.816;9.230;2024-02-21T09:43:51;10.70;99.90
4509;DHT22;2267;48.816;9.230;2024-02-21T09:46:26;10.70;99.90
4509;DHT22;2267;48.816;9.230;2024-02-21T09:51:34;10.90;99.90
4509;DHT22;2267;48.816;9.230;2024-02-21T09:54:02;11.00;99.90
4509;DHT22;2267;48.816;9.230;2024-02-21T09:56:42;11.10;99.90
4509;DHT22;2267;48.816;9.230;2024-02-21T09:59:09;11.20;99.90
4509;DHT22;2267;48.816;9.230;2024-02-21T10:01:38;11.30;99.90
4509;DHT22;2267;48.816;9.230;2024-02-21T10:04:05;11.30;99.90
4509;DHT22;2267;48.816;9.230;2024-02-21T10:06:32;11.40;99.90
4509;DHT22;2267;48.816;9.230;2024-02-21T10:08:59;11.50;99.90
4509;DHT22;2267;48.816;9.230;2024-02-21T10:11:26;11.60;99.90
4509;DHT22;2267;48.816;9.230;2024-02-21T10:14:06;11.80;99.90
4509;DHT22;2267;48.816;9.230;2024-02-21T10:16:34;11.90;99.70
4509;DHT22;2267;48.816;9.230;2024-02-21T10:19:01;12.00;99.10
4509;DHT22;2267;48.816;9.230;2024-02-21T10:21:30;12.10;99.10
4509;DHT22;2267;48.816;9.230;2024-02-21T10:23:57;12.10;98.70
4509;DHT22;2267;48.816;9.230;2024-02-21T10:26:24;12.20;98.50
4509;DHT22;2267;48.816;9.230;2024-02-21T10:28:51;12.20;98.10
4509;DHT22;2267;48.816;9.230;2024-02-21T10:31:26;12.20;97.50
4509;DHT22;2267;48.816;9.230;2024-02-21T10:33:58;12.30;98.00
4509;DHT22;2267;48.816;9.230;2024-02-21T10:36:26;12.40;98.40
4509;DHT22;2267;48.816;9.230;2024-02-21T10:38:53;12.40;97.10
4509;DHT22;2267;48.816;9.230;2024-02-21T10:41:22;12.40;97.30
4509;DHT22;2267;48.816;9.230;2024-02-21T10:43:52;12.50;97.30
4509;DHT22;2267;48.816;9.230;2024-02-21T10:46:23;12.50;97.30
4509;DHT22;2267;48.816;9.230;2024-02-21T10:49:03;12.60;97.40
4509;DHT22;2267;48.816;9.230;2024-02-21T10:51:34;12.60;96.80
4509;DHT22;2267;48.816;9.230;2024-02-21T10:54:19;12.60;96.80
4509;DHT22;2267;48.816;9.230;2024-02-21T10:56:50;12.70;97.00
4509;DHT22;2267;48.816;9.230;2024-02-21T10:59:18;12.70;97.00
4509;DHT22;2267;48.816;9.230;2024-02-21T11:01:46;12.70;96.60
4509;DHT22;2267;48.816;9.230;2024-02-21T11:04:14;12.70;95.90
4509;DHT22;2267;48.816;9.230;2024-02-21T11:06:42;12.70;95.80
4509;DHT22;2267;48.816;9.230;2024-02-21T11:09:10;12.70;95.70
4509;DHT22;2267;48.816;9.230;2024-02-21T11:11:39;12.60;95.70
4509;DHT22;2267;48.816;9.230;2024-02-21T11:14:11;12.60;95.70
4509;DHT22;2267;48.816;9.230;2024-02-21T11:16:44;12.60;95.70
4509;DHT22;2267;48.816;9.230;2024-02-21T11:19:26;12.60;95.90
4509;DHT22;2267;48.816;9.230;2024-02-21T11:21:54;12.60;95.60
4509;DHT22;2267;48.816;9.230;2024-02-21T11:27:13;12.60;95.60
4509;DHT22;2267;48.816;9.230;2024-02-21T11:29:48;12.70;96.00
4509;DHT22;2267;48.816;9.230;2024-02-21T11:32:19;12.70;95.60
4509;DHT22;2267;48.816;9.230;2024-02-21T11:34:54;12.70;95.40
4509;DHT22;2267;48.816;9.230;2024-02-21T11:37:25;12.80;95.50
4509;DHT22;2267;48.816;9.230;2024-02-21T11:39:52;12.80;95.30
4509;DHT22;2267;48.816;9.230;2024-02-21T11:42:19;12.80;95.40
4509;DHT22;2267;48.816;9.230;2024-02-21T11:44:46;12.90;95.90
4509;DHT22;2267;48.816;9.230;2024-02-21T11:47:14;13.00;95.70
4509;DHT22;2267;48.816;9.230;2024-02-21T11:49:48;13.00;95.60
4509;DHT22;2267;48.816;9.230;2024-02-21T11:52:17;13.10;95.40
4509;DHT22;2267;48.816;9.230;2024-02-21T11:54:46;13.10;94.70
4509;DHT22;2267;48.816;9.230;2024-02-21T11:57:13;13.10;94.60
4509;DHT22;2267;48.816;9.230;2024-02-21T11:59:43;13.10;94.40
4509;DHT22;2267;48.816;9.230;2024-02-21T12:02:12;13.10;94.10
4509;DHT22;2267;48.816;9.230;2024-02-21T12:04:38;13.10;94.20
4509;DHT22;2267;48.816;9.230;2024-02-21T12:07:06;13.10;94.50
4509;DHT22;2267;48.816;9.230;2024-02-21T12:09:34;13.10;94.20
4509;DHT22;2267;48.816;9.230;2024-02-21T12:12:06;13.10;94.20
4509;DHT22;2267;48.816;9.230;2024-02-21T12:14:34;13.10;94.20
4509;DHT22;2267;48.816;9.230;2024-02-21T12:17:02;13.10;93.80
4509;DHT22;2267;48.816;9.230;2024-02-21T12:19:34;13.10;93.80
4509;DHT22;2267;48.816;9.230;2024-02-21T12:22:01;13.10;93.10
4509;DHT22;2267;48.816;9.230;2024-02-21T12:24:33;13.20;93.40
4509;DHT22;2267;48.816;9.230;2024-02-21T12:27:00;13.20;93.50
4509;DHT22;2267;48.816;9.230;2024-02-21T12:29:30;13.30;93.40
4509;DHT22;2267;48.816;9.230;2024-02-21T12:31:57;13.30;93.60
4509;DHT22;2267;48.816;9.230;2024-02-21T12:34:25;13.40;93.10
4509;DHT22;2267;48.816;9.230;2024-02-21T12:37:10;13.40;93.00
4509;DHT22;2267;48.816;9.230;2024-02-21T12:39:39;13.50;93.00
4509;DHT22;2267;48.816;9.230;2024-02-21T12:42:06;13.50;93.10
4509;DHT22;2267;48.816;9.230;2024-02-21T12:44:33;13.60;93.30
4509;DHT22;2267;48.816;9.230;2024-02-21T12:47:00;13.70;92.90
4509;DHT22;2267;48.816;9.230;2024-02-21T12:49:27;13.70;92.10
4509;DHT22;2267;48.816;9.230;2024-02-21T12:51:56;13.70;91.50
4509;DHT22;2267;48.816;9.230;2024-02-21T12:54:23;13.80;90.90
4509;DHT22;2267;48.816;9.230;2024-02-21T12:56:50;13.80;91.10
4509;DHT22;2267;48.816;9.230;2024-02-21T12:59:17;13.80;90.50
4509;DHT22;2267;48.816;9.230;2024-02-21T13:01:44;13.80;90.30
4509;DHT22;2267;48.816;9.230;2024-02-21T13:04:11;13.80;90.30
4509;DHT22;2267;48.816;9.230;2024-02-21T13:06:38;13.80;90.10
4509;DHT22;2267;48.816;9.230;2024-02-21T13:09:05;13.90;90.10
4509;DHT22;2267;48.816;9.230;2024-02-21T13:11:35;13.90;90.30
4509;DHT22;2267;48.816;9.230;2024-02-21T13:14:02;13.90;90.00
4509;DHT22;2267;48.816;9.230;2024-02-21T13:16:29;14.00;88.70
4509;DHT22;2267;48.816;9.230;2024-02-21T13:18:56;14.00;88.20
4509;DHT22;2267;48.816;9.230;2024-02-21T13:21:23;14.00;88.00
4509;DHT22;2267;48.816;9.230;2024-02-21T13:23:50;14.00;87.10
4509;DHT22;2267;48.816;9.230;2024-02-21T13:26:16;14.00;86.20
4509;DHT22;2267;48.816;9.230;2024-02-21T13:28:43;14.00;86.90
4509;DHT22;2267;48.816;9.230;2024-02-21T13:31:12;14.00;87.50
4509;DHT22;2267;48.816;9.230;2024-02-21T13:33:39;14.00;86.30
4509;DHT22;2267;48.816;9.230;2024-02-21T13:36:06;14.00;86.30
4509;DHT22;2267;48.816;9.230;2024-02-21T13:38:33;14.00;85.20
4509;DHT22;2267;48.816;9.230;2024-02-21T13:41:00;14.00;85.90
4509;DHT22;2267;48.816;9.230;2024-02-21T13:43:27;14.00;85.90
4509;DHT22;2267;48.816;9.230;2024-02-21T13:45:57;14.00;85.00
4509;DHT22;2267;48.816;9.230;2024-02-21T13:48:25;14.00;85.60
4509;DHT22;2267;48.816;9.230;2024-02-21T13:50:52;14.00;86.10
4509;DHT22;2267;48.816;9.230;2024-02-21T13:53:19;14.00;85.20
4509;DHT22;2267;48.816;9.230;2024-02-21T13:55:47;13.90;84.70
4509;DHT22;2267;48.816;9.230;2024-02-21T13:58:14;13.90;84.80
4509;DHT22;2267;48.816;9.230;2024-02-21T14:00:41;13.90;84.60
4509;DHT22;2267;48.816;9.230;2024-02-21T14:03:08;13.90;84.10
4509;DHT22;2267;48.816;9.230;2024-02-21T14:05:36;13.90;83.00
4509;DHT22;2267;48.816;9.230;2024-02-21T14:08:07;13.90;82.80
4509;DHT22;2267;48.816;9.230;2024-02-21T14:10:34;13.90;82.40
4509;DHT22;2267;48.816;9.230;2024-02-21T14:13:01;13.90;82.30
4509;DHT22;2267;48.816;9.230;2024-02-21T14:15:28;13.80;82.20
4509;DHT22;2267;48.816;9.230;2024-02-21T14:17:55;13.80;82.70
4509;DHT22;2267;48.816;9.230;2024-02-21T14:20:23;13.80;82.60
4509;DHT22;2267;48.816;9.230;2024-02-21T14:22:50;13.80;82.50
4509;DHT22;2267;48.816;9.230;2024-02-21T14:25:16;13.80;82.10
4509;DHT22;2267;48.816;9.230;2024-02-21T14:27:43;13.80;82.20
4509;DHT22;2267;48.816;9.230;2024-02-21T14:30:10;13.80;82.80
4509;DHT22;2267;48.816;9.230;2024-02-21T14:32:38;13.80;82.00
4509;DHT22;2267;48.816;9.230;2024-02-21T14:35:07;13.80;81.90
4509;DHT22;2267;48.816;9.230;2024-02-21T14:37:34;13.80;82.70
4509;DHT22;2267;48.816;9.230;2024-02-21T14:40:01;13.80;82.00
4509;DHT22;2267;48.816;9.230;2024-02-21T14:42:28;13.80;82.30
4509;DHT22;2267;48.816;9.230;2024-02-21T14:44:54;13.80;82.50
4509;DHT22;2267;48.816;9.230;2024-02-21T14:47:31;13.80;82.50
4509;DHT22;2267;48.816;9.230;2024-02-21T14:49:58;13.80;82.20
4509;DHT22;2267;48.816;9.230;2024-02-21T14:52:26;13.80;82.90
4509;DHT22;2267;48.816;9.230;2024-02-21T14:54:54;13.80;82.30
4509;DHT22;2267;48.816;9.230;2024-02-21T14:57:21;13.80;81.70
4509;DHT22;2267;48.816;9.230;2024-02-21T14:59:49;13.80;81.50
4509;DHT22;2267;48.816;9.230;2024-02-21T15:02:17;13.80;81.70
4509;DHT22;2267;48.816;9.230;2024-02-21T15:04:44;13.80;81.90
4509;DHT22;2267;48.816;9.230;2024-02-21T15:07:10;13.80;80.60
4509;DHT22;2267;48.816;9.230;2024-02-21T15:09:37;13.80;80.00
4509;DHT22;2267;48.816;9.230;2024-02-21T15:12:04;13.80;80.60
4509;DHT22;2267;48.816;9.230;2024-02-21T15:14:32;13.80;80.80
4509;DHT22;2267;48.816;9.230;2024-02-21T15:16:59;13.80;79.70
4509;DHT22;2267;48.816;9.230;2024-02-21T15:19:26;13.70;79.10
4509;DHT22;2267;48.816;9.230;2024-02-21T15:21:54;13.70;79.60
4509;DHT22;2267;48.816;9.230;2024-02-21T15:24:21;13.80;79.70
4509;DHT22;2267;48.816;9.230;2024-02-21T15:26:47;13.70;77.30
4509;DHT22;2267;48.816;9.230;2024-02-21T15:29:14;13.70;78.20
4509;DHT22;2267;48.816;9.230;2024-02-21T15:31:41;13.70;79.00
4509;DHT22;2267;48.816;9.230;2024-02-21T15:34:13;13.70;79.10
4509;DHT22;2267;48.816;9.230;2024-02-21T15:36:45;13.70;78.90
4509;DHT22;2267;48.816;9.230;2024-02-21T15:39:11;13.70;78.90
4509;DHT22;2267;48.816;9.230;2024-02-21T15:41:39;13.70;79.70
4509;DHT22;2267;48.816;9.230;2024-02-21T15:44:06;13.70;80.40
4509;DHT22;2267;48.816;9.230;2024-02-21T15:46:33;13.70;81.00
4509;DHT22;2267;48.816;9.230;2024-02-21T15:49:04;13.80;81.60
4509;DHT22;2267;48.816;9.230;2024-02-21T15:51:31;13.70;82.40
4509;DHT22;2267;48.816;9.230;2024-02-21T15:54:01;13.70;83.10
4509;DHT22;2267;48.816;9.230;2024-02-21T15:56:27;13.70;83.80
4509;DHT22;2267;48.816;9.230;2024-02-21T15:58:54;13.70;84.50
4509;DHT22;2267;48.816;9.230;2024-02-21T16:01:24;13.70;85.10
4509;DHT22;2267;48.816;9.230;2024-02-21T16:03:51;13.70;85.70
4509;DHT22;2267;48.816;9.230;2024-02-21T16:06:22;13.70;86.20
4509;DHT22;2267;48.816;9.230;2024-02-21T16:08:49;13.60;86.50
4509;DHT22;2267;48.816;9.230;2024-02-21T16:11:17;13.70;86.90
4509;DHT22;2267;48.816;9.230;2024-02-21T16:13:45;13.60;87.20
4509;DHT22;2267;48.816;9.230;2024-02-21T16:16:15;13.60;87.60
4509;DHT22;2267;48.816;9.230;2024-02-21T16:18:42;13.60;87.80
4509;DHT22;2267;48.816;9.230;2024-02-21T16:21:09;13.60;88.30